createdAt,value
2022-09-28T00:00:25.324Z,3.4
2022-09-28T00:01:27.021Z,3.37
2022-09-28T00:02:26.334Z,3.38
2022-09-28T00:03:26.383Z,3.36
2022-09-28T00:04:26.884Z,3.33
2022-09-28T00:05:27.224Z,3.31
2022-09-28T00:06:29.977Z,3.28
2022-09-28T00:07:28.642Z,3.27
2022-09-28T00:08:28.095Z,3.25
2022-09-28T00:09:28.667Z,3.23
2022-09-28T00:10:28.988Z,3.2
2022-09-28T00:11:29.803Z,3.18
2022-09-28T00:12:29.909Z,3.17
2022-09-28T00:13:30.439Z,3.19
2022-09-28T00:14:30.534Z,3.21
2022-09-28T00:15:30.746Z,3.18
2022-09-28T00:16:34.087Z,3.2
2022-09-28T00:17:31.478Z,3.15
2022-09-28T00:18:33.131Z,3.13
2022-09-28T00:19:32.423Z,3.13
2022-09-28T00:20:32.729Z,3.24
2022-09-28T00:21:36.111Z,3.19
2022-09-28T00:22:33.673Z,3.15
2022-09-28T00:23:35.121Z,3.11
2022-09-28T00:24:34.462Z,3.1
2022-09-28T00:25:34.615Z,3.05
2022-09-28T00:26:35.230Z,3.04
2022-09-28T00:27:35.411Z,3.05
2022-09-28T00:28:35.765Z,3.04
2022-09-28T00:29:37.603Z,3.06
2022-09-28T00:30:36.387Z,3.06
2022-09-28T00:31:37.060Z,3.03
2022-09-28T00:32:37.322Z,3.01
2022-09-28T00:33:37.529Z,2.98
2022-09-28T00:34:40.682Z,2.97
2022-09-28T00:35:38.360Z,2.95
2022-09-28T00:36:38.694Z,2.92
2022-09-28T00:37:38.881Z,2.89
2022-09-28T00:38:39.247Z,2.85
2022-09-28T00:39:40.440Z,2.83
2022-09-28T00:40:40.297Z,2.88
2022-09-28T00:41:41.055Z,2.88
2022-09-28T00:42:40.612Z,2.86
2022-09-28T00:43:41.500Z,2.85
2022-09-28T00:44:49.790Z,2.82
2022-09-28T00:45:42.382Z,2.8
2022-09-28T00:46:42.953Z,2.78
2022-09-28T00:47:53.901Z,2.77
2022-09-28T00:48:59.231Z,2.78
2022-09-28T00:50:47.774Z,2.74
2022-09-28T00:51:48.637Z,2.73
2022-09-28T00:52:57.326Z,2.73
2022-09-28T00:53:51.692Z,2.73
2022-09-28T00:54:53.017Z,2.74
2022-09-28T00:56:00.677Z,2.78
2022-09-28T00:56:53.295Z,2.78
2022-09-28T00:57:58.367Z,2.75
2022-09-28T00:58:57.241Z,2.75
2022-09-28T00:59:56.972Z,2.75
2022-09-28T01:00:59.337Z,2.78
2022-09-28T01:01:57.918Z,2.79
2022-09-28T01:02:58.704Z,2.72
2022-09-28T01:03:59.745Z,2.68
2022-09-28T01:05:00.455Z,2.7
2022-09-28T01:06:01.671Z,2.72
2022-09-28T01:07:00.266Z,2.76
2022-09-28T01:08:01.713Z,2.73
2022-09-28T01:09:03.874Z,2.72
2022-09-28T01:10:01.876Z,2.74
2022-09-28T01:11:02.241Z,2.76
2022-09-28T01:12:02.754Z,2.75
2022-09-28T01:13:02.562Z,2.81
2022-09-28T01:14:03.497Z,2.94
2022-09-28T01:15:05.235Z,2.89
2022-09-28T01:28:36.972Z,2.77
2022-09-28T01:30:47.640Z,2.72
2022-09-28T01:31:44.903Z,2.71
2022-09-28T01:33:48.825Z,2.71
2022-09-28T01:39:08.005Z,2.66
2022-09-28T01:40:02.197Z,2.65
2022-09-28T01:41:01.822Z,2.66
2022-09-28T01:42:07.670Z,2.64
2022-09-28T01:43:13.922Z,2.64
2022-09-28T01:44:14.284Z,2.59
2022-09-28T01:45:15.173Z,2.54
2022-09-28T01:47:14.558Z,2.49
2022-09-28T01:48:17.871Z,2.5
2022-09-28T01:52:33.879Z,2.38
2022-09-28T01:53:33.752Z,2.33
2022-09-28T01:54:43.692Z,2.33
2022-09-28T01:56:47.560Z,2.32
2022-09-28T01:58:53.186Z,2.31
2022-09-28T02:01:03.017Z,2.34
2022-09-28T02:03:07.855Z,2.32
2022-09-28T02:05:11.710Z,2.34
2022-09-28T02:09:23.880Z,2.28
2022-09-28T02:10:27.988Z,2.27
2022-09-28T02:11:25.670Z,2.23
2022-09-28T02:12:36.020Z,2.24
2022-09-28T02:13:40.644Z,2.23
2022-09-28T02:14:38.702Z,2.21
2022-09-28T02:15:49.773Z,2.22
2022-09-28T02:16:44.534Z,2.22
2022-09-28T02:17:42.398Z,2.19
2022-09-28T02:18:43.103Z,2.2
2022-09-28T02:19:43.845Z,2.16
2022-09-28T02:20:52.224Z,2.18
2022-09-28T02:21:57.544Z,2.17
2022-09-28T02:23:55.856Z,2.15
2022-09-28T02:25:56.080Z,2.13
2022-09-28T02:26:57.111Z,2.13
2022-09-28T02:28:05.363Z,2.11
2022-09-28T02:28:58.973Z,2.11
2022-09-28T02:29:58.316Z,2.11
2022-09-28T02:30:58.732Z,2.1
2022-09-28T02:31:58.892Z,2.06
2022-09-28T02:33:11.701Z,2
2022-09-28T02:34:04.632Z,2
2022-09-28T02:35:05.153Z,1.99
2022-09-28T02:36:05.867Z,1.97
2022-09-28T02:37:05.462Z,1.95
2022-09-28T02:38:06.003Z,1.93
2022-09-28T02:39:05.903Z,1.9
2022-09-28T02:40:16.892Z,1.87
2022-09-28T03:05:29.070Z,1.86
2022-09-28T03:07:32.043Z,1.81
2022-09-28T03:11:45.883Z,1.78
2022-09-28T03:12:39.192Z,1.79
2022-09-28T03:13:38.880Z,1.79
2022-09-28T03:14:39.198Z,1.82
2022-09-28T03:15:39.448Z,1.89
2022-09-28T03:16:43.732Z,1.94
2022-09-28T03:17:41.374Z,1.98
2022-09-28T03:18:42.090Z,2.04
2022-09-28T03:19:42.102Z,2.09
2022-09-28T03:20:42.161Z,2.12
2022-09-28T03:21:42.463Z,2.15
2022-09-28T03:22:52.065Z,2.2
2022-09-28T03:23:45.929Z,2.26
2022-09-28T03:24:46.225Z,2.29
2022-09-28T03:25:46.473Z,2.33
2022-09-28T03:26:46.757Z,2.39
2022-09-28T03:27:47.581Z,2.48
2022-09-28T03:28:47.420Z,2.49
2022-09-28T03:29:47.899Z,2.55
2022-09-28T03:30:48.354Z,2.59
2022-09-28T03:31:48.728Z,2.6
2022-09-28T03:33:54.180Z,2.7
2022-09-28T03:34:54.378Z,2.67
2022-09-28T03:35:54.644Z,2.66
2022-09-28T03:36:55.522Z,2.67
2022-09-28T03:37:56.957Z,2.68
2022-09-28T03:38:56.448Z,2.71
2022-09-28T03:39:56.052Z,2.78
2022-09-28T03:40:58.854Z,2.78
2022-09-28T03:41:56.990Z,2.8
2022-09-28T03:42:57.312Z,2.8
2022-09-28T03:43:57.624Z,2.77
2022-09-28T03:44:57.932Z,2.75
2022-09-28T03:46:00.589Z,2.8
2022-09-28T03:46:58.976Z,2.8
2022-09-28T03:47:59.173Z,2.78
2022-09-28T03:48:59.290Z,2.78
2022-09-28T03:49:59.844Z,2.8
2022-09-28T03:52:04.640Z,2.89
2022-09-28T03:53:04.232Z,2.9
2022-09-28T03:54:04.603Z,2.87
2022-09-28T03:55:05.164Z,2.88
2022-09-28T03:56:08.043Z,2.85
2022-09-28T03:57:05.744Z,2.85
2022-09-28T03:58:05.910Z,2.9
2022-09-28T03:59:06.211Z,2.89
2022-09-28T04:00:07.343Z,2.9
2022-09-28T04:02:11.935Z,2.89
2022-09-28T04:03:12.026Z,2.88
2022-09-28T04:04:13.515Z,2.89
2022-09-28T04:05:12.907Z,2.89
2022-09-28T04:06:14.347Z,2.94
2022-09-28T04:07:13.739Z,2.93
2022-09-28T04:08:14.061Z,2.94
2022-09-28T04:09:14.567Z,2.93
2022-09-28T04:10:15.044Z,2.94
2022-09-28T04:11:14.998Z,2.97
2022-09-28T04:12:15.412Z,3.01
2022-09-28T04:13:15.665Z,3
2022-09-28T04:14:15.973Z,3.01
2022-09-28T04:15:16.715Z,2.98
2022-09-28T04:16:17.038Z,3.01
2022-09-28T04:17:17.022Z,3.02
2022-09-28T04:18:17.604Z,3.08
2022-09-28T04:19:17.932Z,3.06
2022-09-28T04:20:18.640Z,3.08
2022-09-28T04:21:19.970Z,3.06
2022-09-28T04:22:18.854Z,3.04
2022-09-28T04:23:19.333Z,3.01
2022-09-28T04:24:19.792Z,3.05
2022-09-28T04:25:20.123Z,3.04
2022-09-28T04:26:23.090Z,3.05
2022-09-28T04:27:20.641Z,3.08
2022-09-28T04:28:21.193Z,3.09
2022-09-28T04:29:21.474Z,3.11
2022-09-28T04:30:21.977Z,3.08
2022-09-28T04:31:23.187Z,3.13
2022-09-28T04:32:22.716Z,3.1
2022-09-28T04:33:23.132Z,3.12
2022-09-28T04:34:23.748Z,3.13
2022-09-28T04:35:23.762Z,3.05
2022-09-28T04:36:24.333Z,3.08
2022-09-28T04:37:24.224Z,3.11
2022-09-28T04:38:48.374Z,3.14
2022-09-28T04:39:26.947Z,3.12
2022-09-28T04:40:27.319Z,3.11
2022-09-28T04:41:27.790Z,3.11
2022-09-28T04:42:28.170Z,3.1
2022-09-28T04:43:28.521Z,3.08
2022-09-28T04:44:28.708Z,3.11
2022-09-28T04:45:29.200Z,3.15
2022-09-28T04:46:29.726Z,3.16
2022-09-28T04:47:30.293Z,3.22
2022-09-28T04:48:30.184Z,3.23
2022-09-28T04:49:30.814Z,3.26
2022-09-28T04:50:30.752Z,3.25
2022-09-28T04:51:31.852Z,3.3
2022-09-28T04:52:31.549Z,3.27
2022-09-28T04:53:31.964Z,3.31
2022-09-28T04:54:32.490Z,3.31
2022-09-28T04:55:32.614Z,3.33
2022-09-28T04:56:33.063Z,3.32
2022-09-28T04:57:36.040Z,3.33
2022-09-28T04:58:35.683Z,3.31
2022-09-28T04:59:34.742Z,3.3
2022-09-28T05:00:34.467Z,3.3
2022-09-28T05:01:34.847Z,3.25
2022-09-28T05:02:35.237Z,3.25
2022-09-28T05:03:35.652Z,3.29
2022-09-28T05:04:36.131Z,3.39
2022-09-28T05:05:36.251Z,3.41
2022-09-28T05:06:36.714Z,3.42
2022-09-28T05:07:37.111Z,3.45
2022-09-28T05:08:37.290Z,3.47
2022-09-28T05:09:38.685Z,3.44
2022-09-28T05:10:38.061Z,3.4
2022-09-28T05:11:38.427Z,3.44
2022-09-28T05:12:38.744Z,3.47
2022-09-28T05:14:41.721Z,3.51
2022-09-28T05:15:42.344Z,3.55
2022-09-28T05:16:42.833Z,3.45
2022-09-28T05:17:42.974Z,3.39
2022-09-28T05:18:43.489Z,3.44
2022-09-28T05:19:43.549Z,3.48
2022-09-28T05:20:43.927Z,3.53
2022-09-28T05:21:47.401Z,3.53
2022-09-28T05:22:44.804Z,3.48
2022-09-28T05:23:48.344Z,3.55
2022-09-28T05:24:45.829Z,3.59
2022-09-28T05:25:45.963Z,3.57
2022-09-28T05:26:46.614Z,3.62
2022-09-28T05:27:46.932Z,3.65
2022-09-28T05:28:47.373Z,3.65
2022-09-28T05:29:47.564Z,3.74
2022-09-28T05:30:48.085Z,3.58
2022-09-28T05:31:48.352Z,3.6
2022-09-28T05:32:49.120Z,3.68
2022-09-28T05:33:49.449Z,3.66
2022-09-28T05:34:49.385Z,3.7
2022-09-28T05:35:53.785Z,3.7
2022-09-28T05:36:52.458Z,3.75
2022-09-28T05:37:53.242Z,3.75
2022-09-28T05:38:53.759Z,3.8
2022-09-28T05:39:53.665Z,3.77
2022-09-28T05:40:54.049Z,3.78
2022-09-28T05:41:55.128Z,3.84
2022-09-28T05:43:57.006Z,3.85
2022-09-28T05:44:57.589Z,3.84
2022-09-28T05:45:59.696Z,3.87
2022-09-28T05:46:57.706Z,3.9
2022-09-28T05:47:58.167Z,3.83
2022-09-28T05:48:58.743Z,3.81
2022-09-28T05:49:58.764Z,3.82
2022-09-28T05:50:59.384Z,3.85
2022-09-28T05:51:59.419Z,3.94
2022-09-28T05:54:05.627Z,4.05
2022-09-28T05:55:04.243Z,4.04
2022-09-28T05:56:04.124Z,4.07
2022-09-28T05:57:05.761Z,4.07
2022-09-28T05:58:06.503Z,4.06
2022-09-28T05:59:05.173Z,4.1
2022-09-28T06:00:06.705Z,4.15
2022-09-28T06:01:05.878Z,4.16
2022-09-28T06:02:07.246Z,4.1
2022-09-28T06:03:09.581Z,4.14
2022-09-28T06:04:07.130Z,4.18
2022-09-28T06:05:08.163Z,4.21
2022-09-28T06:06:07.966Z,4.24
2022-09-28T06:07:08.284Z,4.27
2022-09-28T06:08:10.232Z,4.21
2022-09-28T06:09:09.433Z,4.2
2022-09-28T06:10:09.533Z,4.2
2022-09-28T06:11:09.579Z,4.21
2022-09-28T06:12:10.252Z,4.25
2022-09-28T06:13:10.587Z,4.35
2022-09-28T06:14:11.247Z,4.38
2022-09-28T06:15:11.158Z,4.3
2022-09-28T06:16:15.895Z,4.21
2022-09-28T06:17:13.088Z,4.2
2022-09-28T06:18:14.244Z,4.24
2022-09-28T06:19:14.195Z,4.29
2022-09-28T06:20:14.502Z,4.38
2022-09-28T06:21:14.822Z,4.39
2022-09-28T06:22:15.244Z,4.36
2022-09-28T06:23:15.443Z,4.4
2022-09-28T06:24:15.979Z,4.39
2022-09-28T06:25:16.644Z,4.43
2022-09-28T06:26:17.413Z,4.42
2022-09-28T06:27:17.043Z,4.34
2022-09-28T06:28:17.388Z,4.29
2022-09-28T06:29:19.600Z,4.45
2022-09-28T06:30:18.157Z,4.6
2022-09-28T06:31:18.562Z,4.66
2022-09-28T06:32:19.091Z,4.69
2022-09-28T06:33:19.328Z,4.77
2022-09-28T06:34:19.523Z,4.84
2022-09-28T06:35:20.034Z,4.79
2022-09-28T06:36:20.474Z,4.78
2022-09-28T06:37:20.953Z,4.87
2022-09-28T06:38:21.307Z,4.93
2022-09-28T06:39:21.597Z,4.96
2022-09-28T06:40:23.482Z,4.92
2022-09-28T06:41:22.060Z,4.96
2022-09-28T06:42:22.541Z,4.96
2022-09-28T06:43:23.261Z,4.97
2022-09-28T06:44:23.475Z,4.91
2022-09-28T06:45:24.716Z,4.75
2022-09-28T06:46:24.029Z,4.81
2022-09-28T06:47:24.519Z,4.9
2022-09-28T06:48:25.341Z,5
2022-09-28T06:49:25.153Z,4.98
2022-09-28T06:50:27.438Z,4.89
2022-09-28T06:51:25.986Z,4.9
2022-09-28T06:52:26.313Z,4.91
2022-09-28T06:53:28.140Z,4.99
2022-09-28T06:54:27.087Z,5.04
2022-09-28T06:55:28.251Z,4.96
2022-09-28T06:56:32.542Z,5
2022-09-28T06:57:30.426Z,5.08
2022-09-28T06:58:30.626Z,5.09
2022-09-28T06:59:31.148Z,5.14
2022-09-28T07:00:34.436Z,5.26
2022-09-28T07:01:32.751Z,5.24
2022-09-28T07:02:33.129Z,5.26
2022-09-28T07:03:33.326Z,5.3
2022-09-28T07:04:33.746Z,5.34
2022-09-28T07:05:36.227Z,5.42
2022-09-28T07:06:34.569Z,5.55
2022-09-28T07:07:34.806Z,5.59
2022-09-28T07:08:35.204Z,5.51
2022-09-28T07:09:41.409Z,5.4
2022-09-28T07:10:36.445Z,5.49
2022-09-28T07:11:39.730Z,5.53
2022-09-28T07:12:37.325Z,5.62
2022-09-28T07:13:49.699Z,5.75
2022-09-28T07:14:47.423Z,5.79
2022-09-28T07:15:41.599Z,5.64
2022-09-28T07:17:09.933Z,5.58
2022-09-28T07:17:56.314Z,5.54
2022-09-28T07:18:45.107Z,5.55
2022-09-28T07:19:45.327Z,5.64
2022-09-28T07:20:53.466Z,5.61
2022-09-28T07:21:55.554Z,5.48
2022-09-28T07:22:46.984Z,5.5
2022-09-28T07:23:53.436Z,5.59
2022-09-28T07:25:52.105Z,5.64
2022-09-28T07:26:52.562Z,5.7
2022-09-28T07:27:56.939Z,5.73
2022-09-28T07:28:54.292Z,5.85
2022-09-28T07:29:54.789Z,6.04
2022-09-28T07:30:57.544Z,6.03
2022-09-28T07:31:55.621Z,6.04
2022-09-28T07:32:56.266Z,6.07
2022-09-28T07:33:56.165Z,6.08
2022-09-28T07:34:58.865Z,6.15
2022-09-28T07:35:56.847Z,6.29
2022-09-28T07:36:57.456Z,6.36
2022-09-28T07:39:03.466Z,6.62
2022-09-28T07:41:05.292Z,6.79
2022-09-28T07:42:05.845Z,6.83
2022-09-28T07:43:06.594Z,6.94
2022-09-28T07:44:06.514Z,6.54
2022-09-28T07:45:07.707Z,6.68
2022-09-28T07:46:08.182Z,6.59
2022-09-28T07:47:07.264Z,6.76
2022-09-28T07:48:07.940Z,6.66
2022-09-28T07:49:11.424Z,6.47
2022-09-28T07:50:10.413Z,6.47
2022-09-28T07:51:10.606Z,6.43
2022-09-28T07:52:10.725Z,6.44
2022-09-28T07:53:11.050Z,6.54
2022-09-28T07:54:11.547Z,6.36
2022-09-28T07:55:11.964Z,6.44
2022-09-28T07:56:12.271Z,6.55
2022-09-28T07:57:12.803Z,6.38
2022-09-28T07:58:13.104Z,6.4
2022-09-28T07:59:13.396Z,6.33
2022-09-28T08:00:14.757Z,6.42
2022-09-28T08:01:14.641Z,6.43
2022-09-28T08:02:14.634Z,6.37
2022-09-28T08:03:16.818Z,6.31
2022-09-28T08:04:15.724Z,6.31
2022-09-28T08:05:15.916Z,6.19
2022-09-28T08:06:17.456Z,6
2022-09-28T08:07:21.550Z,6
2022-09-28T08:08:21.164Z,6.03
2022-09-28T08:09:21.468Z,6.09
2022-09-28T08:10:21.885Z,5.93
2022-09-28T08:11:22.509Z,5.9
2022-09-28T08:12:22.722Z,5.88
2022-09-28T08:13:26.699Z,5.93
2022-09-28T08:14:24.678Z,5.97
2022-09-28T08:15:25.101Z,5.95
2022-09-28T08:16:25.787Z,5.99
2022-09-28T08:17:25.848Z,6.07
2022-09-28T08:18:26.045Z,6.16
2022-09-28T08:19:26.987Z,6.2
2022-09-28T08:20:26.987Z,6.31
2022-09-28T08:21:27.341Z,6.42
2022-09-28T08:22:27.800Z,6.54
2022-09-28T08:23:28.127Z,6.82
2022-09-28T08:24:28.554Z,7.06
2022-09-28T08:25:28.867Z,7.32
2022-09-28T08:26:29.362Z,7.48
2022-09-28T08:27:29.540Z,7.68
2022-09-28T08:28:30.306Z,7.61
2022-09-28T08:29:30.513Z,7.65
2022-09-28T08:30:30.811Z,7.77
2022-09-28T08:31:31.464Z,7.85
2022-09-28T08:32:31.863Z,7.73
2022-09-28T08:33:32.173Z,7.69
2022-09-28T08:34:32.390Z,7.4
2022-09-28T08:35:32.796Z,7.12
2022-09-28T08:36:33.546Z,7.28
2022-09-28T08:37:34.039Z,7.34
2022-09-28T08:38:34.366Z,7.25
2022-09-28T08:39:34.688Z,7.16
2022-09-28T08:42:43.613Z,7.05
2022-09-28T08:45:47.704Z,7.42
2022-09-28T08:46:51.727Z,7.39
2022-09-28T08:49:20.710Z,7.59
2022-09-28T08:49:56.043Z,7.51
2022-09-28T08:51:00.676Z,7.54
2022-09-28T08:57:20.766Z,8.16
2022-09-28T08:58:26.098Z,8.15
2022-09-28T08:59:26.719Z,8.07
2022-09-28T09:00:29.689Z,8.19
2022-09-28T09:01:26.680Z,8.15
2022-09-28T09:02:30.176Z,8.09
2022-09-28T09:03:34.329Z,8.2
2022-09-28T09:04:34.118Z,8.46
2022-09-28T09:25:24.478Z,8.21
2022-09-28T09:47:32.189Z,9.35
2022-09-28T09:53:52.167Z,10.21
2022-09-28T09:59:58.547Z,9.65
2022-09-28T10:03:01.797Z,9.04
2022-09-28T10:04:05.019Z,9.05
2022-09-28T10:06:13.132Z,9.02
2022-09-28T10:07:09.349Z,9.09
2022-09-28T10:10:20.418Z,9.47
2022-09-28T10:11:25.859Z,9.57
2022-09-28T10:12:23.820Z,9.62
2022-09-28T10:13:21.094Z,9.76
2022-09-28T10:14:24.134Z,9.84
2022-09-28T10:15:27.944Z,9.86
2022-09-28T10:16:25.666Z,9.89
2022-09-28T10:17:25.903Z,9.98
2022-09-28T10:18:27.541Z,9.96
2022-09-28T10:19:32.355Z,10.03
2022-09-28T10:20:34.832Z,10.08
2022-09-28T10:21:32.588Z,10.23
2022-09-28T10:22:33.501Z,9.98
2022-09-28T10:23:37.817Z,9.79
2022-09-28T10:25:38.338Z,9.66
2022-09-28T10:26:44.308Z,9.73
2022-09-28T10:27:45.013Z,9.67
2022-09-28T10:30:48.948Z,9.96
2022-09-28T10:31:51.183Z,9.9
2022-09-28T10:32:51.897Z,9.81
2022-09-28T10:33:53.506Z,9.91
2022-09-28T10:34:52.524Z,9.87
2022-09-28T10:35:51.509Z,9.93
2022-09-28T10:38:54.003Z,10.13
2022-09-28T10:39:56.145Z,10.13
2022-09-28T10:41:57.205Z,10.22
2022-09-28T10:44:03.794Z,9.97
2022-09-28T10:46:11.464Z,10.16
2022-09-28T10:47:15.246Z,10.23
2022-09-28T10:48:20.790Z,10.26
2022-09-28T10:49:17.604Z,10.3
2022-09-28T10:50:22.669Z,10.59
2022-09-28T10:51:20.598Z,10.69
2022-09-28T10:53:22.751Z,10.73
2022-09-28T10:54:25.837Z,10.81
2022-09-28T10:56:29.031Z,10.81
2022-09-28T10:59:41.329Z,10.85
2022-09-28T11:01:36.237Z,10.6
2022-09-28T11:02:38.764Z,10.62
2022-09-28T11:04:42.704Z,10.79
2022-09-28T11:05:40.250Z,10.74
2022-09-28T11:06:41.527Z,10.85
2022-09-28T11:07:48.591Z,10.9
2022-09-28T11:08:50.089Z,10.75
2022-09-28T11:09:49.388Z,10.61
2022-09-28T11:10:48.050Z,10.75
2022-09-28T11:11:48.784Z,10.85
2022-09-28T11:12:50.950Z,11
2022-09-28T11:13:56.065Z,10.97
2022-09-28T11:15:00.510Z,10.95
2022-09-28T11:15:58.223Z,10.85
2022-09-28T11:26:18.353Z,11.46
2022-09-28T11:28:26.052Z,11.22
2022-09-28T11:31:29.758Z,10.77
2022-09-28T11:32:32.426Z,10.66
2022-09-28T11:48:22.298Z,10.17
2022-09-28T11:59:41.723Z,11.07
2022-09-28T12:00:45.724Z,11.22
2022-09-28T12:13:17.894Z,11.4
2022-09-28T12:14:23.716Z,11.37
2022-09-28T12:20:34.698Z,11.15
2022-09-28T12:27:54.191Z,10.59
2022-09-28T12:28:58.401Z,10.48
2022-09-28T12:33:10.325Z,10.79
2022-09-28T12:34:03.242Z,10.73
2022-09-28T12:35:10.944Z,10.77
2022-09-28T12:51:56.992Z,11.05
2022-09-28T13:24:31.642Z,9.89
2022-09-28T13:25:18.116Z,9.78
2022-09-28T13:28:27.029Z,9.42
2022-09-28T13:29:25.959Z,9.36
2022-09-28T13:30:25.374Z,9.33
2022-09-28T13:31:30.863Z,9.26
2022-09-28T13:32:31.883Z,9.25
2022-09-28T13:33:39.678Z,9.39
2022-09-28T13:34:34.977Z,9.46
2022-09-28T13:35:32.748Z,9.54
2022-09-28T13:36:37.642Z,9.59
2022-09-28T13:37:35.305Z,9.67
2022-09-28T13:38:48.215Z,9.75
2022-09-28T13:41:48.543Z,9.96
2022-09-28T13:46:02.534Z,9.94
2022-09-28T13:58:28.907Z,9.42
2022-09-28T13:59:28.910Z,9.44
2022-09-28T14:01:40.199Z,9.52
2022-09-28T14:02:41.286Z,9.49
2022-09-28T14:06:37.430Z,9.39
2022-09-28T14:12:50.606Z,9.29
2022-09-28T14:14:53.252Z,9.32
2022-09-28T14:15:53.526Z,9.32
2022-09-28T14:29:37.185Z,9.28
2022-09-28T14:31:33.828Z,9.28
2022-09-28T14:32:36.252Z,9.36
2022-09-28T14:33:35.465Z,9.34
2022-09-28T14:34:46.864Z,9.3
2022-09-28T14:35:46.585Z,9.3
2022-09-28T14:36:49.061Z,9.28
2022-09-28T14:37:50.235Z,9.26
2022-09-28T14:38:50.135Z,9.28
2022-09-28T14:39:49.126Z,9.25
2022-09-28T14:41:51.279Z,9.08
2022-09-28T14:53:26.272Z,8.89
2022-09-28T14:54:38.991Z,8.89
2022-09-28T14:57:35.727Z,8.82
2022-09-28T14:58:37.673Z,8.84
2022-09-28T14:59:41.890Z,8.81
2022-09-28T15:00:44.869Z,8.82
2022-09-28T15:01:47.332Z,8.85
2022-09-28T15:02:50.097Z,8.83
2022-09-28T15:03:51.375Z,8.78
2022-09-28T15:04:54.179Z,8.77
2022-09-28T15:05:51.923Z,8.73
2022-09-28T15:06:52.365Z,8.68
2022-09-28T15:07:53.846Z,8.69
2022-09-28T15:08:53.106Z,8.67
2022-09-28T15:09:55.673Z,8.67
2022-09-28T15:10:55.470Z,8.68
2022-09-28T15:12:05.826Z,8.71
2022-09-28T15:13:03.979Z,8.69
2022-09-28T15:14:08.046Z,8.69
2022-09-28T15:15:16.707Z,8.7
2022-09-28T15:16:12.668Z,8.62
2022-09-28T15:17:12.118Z,8.56
2022-09-28T15:21:23.076Z,8.59
2022-09-28T15:22:22.270Z,8.57
2022-09-28T15:25:30.833Z,8.46
2022-09-28T15:26:34.285Z,8.46
2022-09-28T15:27:37.010Z,8.46
2022-09-28T15:28:36.648Z,8.45
2022-09-28T15:29:34.925Z,8.4
2022-09-28T15:30:36.218Z,8.42
2022-09-28T15:31:36.565Z,8.41
2022-09-28T15:32:36.328Z,8.45
2022-09-28T15:33:36.484Z,8.43
2022-09-28T15:34:37.395Z,8.4
2022-09-28T15:35:37.527Z,8.39
2022-09-28T15:36:45.523Z,8.38
2022-09-28T15:37:40.520Z,8.43
2022-09-28T15:38:40.406Z,8.45
2022-09-28T15:39:39.269Z,8.45
2022-09-28T15:40:40.486Z,8.41
2022-09-28T15:41:41.742Z,8.38
2022-09-28T15:42:40.114Z,8.41
2022-09-28T15:43:40.546Z,8.47
2022-09-28T15:44:41.661Z,8.48
2022-09-28T15:45:41.316Z,8.44
2022-09-28T15:46:46.949Z,8.45
2022-09-28T15:47:44.426Z,8.45
2022-09-28T15:48:51.975Z,8.49
2022-09-28T15:51:56.265Z,8.52
2022-09-28T15:55:05.129Z,8.5
2022-09-28T15:56:05.666Z,8.52
2022-09-28T15:57:03.559Z,8.54
2022-09-28T16:02:17.586Z,8.52
2022-09-28T16:06:24.666Z,8.37
2022-09-28T16:14:42.128Z,8.31
2022-09-28T16:15:43.635Z,8.3
2022-09-28T16:16:50.628Z,8.28
2022-09-28T16:17:48.644Z,8.31
2022-09-28T16:18:51.107Z,8.32
2022-09-28T16:19:48.726Z,8.31
2022-09-28T16:20:52.049Z,8.26
2022-09-28T16:21:52.560Z,8.22
2022-09-28T16:22:50.418Z,8.17
2022-09-28T16:23:54.921Z,8.16
2022-09-28T16:24:57.745Z,8.16
2022-09-28T16:26:05.387Z,8.13
2022-09-28T16:27:03.371Z,8.13
2022-09-28T16:28:01.406Z,8.13
2022-09-28T16:29:07.763Z,8.08
2022-09-28T16:34:20.810Z,8.05
2022-09-28T16:35:22.746Z,8.04
2022-09-28T16:36:21.040Z,8.05
2022-09-28T16:38:23.527Z,8.03
2022-09-28T16:39:23.795Z,8.04
2022-09-28T16:40:24.567Z,8.05
2022-09-28T16:41:28.476Z,8.09
2022-09-28T16:42:28.264Z,8.1
2022-09-28T16:43:28.742Z,8.09
2022-09-28T16:44:27.926Z,8.09
2022-09-28T16:45:27.210Z,8.09
2022-09-28T16:46:33.394Z,8.05
2022-09-28T16:47:34.501Z,8.06
2022-09-28T16:48:35.124Z,8.03
2022-09-28T16:49:32.685Z,8.04
2022-09-28T16:50:32.948Z,8.05
2022-09-28T16:51:33.914Z,8.01
2022-09-28T16:52:33.713Z,7.99
2022-09-28T16:53:34.331Z,8.01
2022-09-28T16:54:34.547Z,8.04
2022-09-28T16:55:40.451Z,8.02
2022-09-28T16:56:38.644Z,8.04
2022-09-28T16:57:38.867Z,8.01
2022-09-28T16:58:39.482Z,7.96
2022-09-28T16:59:39.661Z,7.99
2022-09-28T17:00:40.257Z,8
2022-09-28T17:01:40.672Z,8.03
2022-09-28T17:02:46.710Z,8.02
2022-09-28T17:03:44.581Z,7.98
2022-09-28T17:04:47.745Z,7.96
2022-09-28T17:05:47.012Z,7.96
2022-09-28T17:06:45.885Z,7.96
2022-09-28T17:07:48.857Z,7.96
2022-09-28T17:08:46.868Z,7.93
2022-09-28T17:09:47.033Z,7.93
2022-09-28T17:11:51.085Z,7.9
2022-09-28T17:12:51.507Z,7.93
2022-09-28T17:13:52.387Z,7.93
2022-09-28T17:14:52.312Z,7.94
2022-09-28T17:15:52.755Z,7.93
2022-09-28T17:17:55.484Z,7.94
2022-09-28T17:18:57.023Z,7.92
2022-09-28T17:19:56.323Z,7.9
2022-09-28T17:20:58.318Z,7.87
2022-09-28T17:21:57.049Z,7.85
2022-09-28T17:22:57.503Z,7.9
2022-09-28T17:23:57.984Z,7.93
2022-09-28T17:24:58.245Z,7.94
2022-09-28T17:25:59.247Z,7.89
2022-09-28T17:26:59.025Z,7.92
2022-09-28T17:27:59.405Z,7.95
2022-09-28T17:29:00.383Z,7.93
2022-09-28T17:30:00.292Z,7.92
2022-09-28T17:31:01.152Z,7.88
2022-09-28T17:32:01.724Z,7.87
2022-09-28T17:33:01.513Z,7.88
2022-09-28T17:34:01.886Z,7.89
2022-09-28T17:35:23.209Z,7.85
2022-09-28T17:36:05.115Z,7.87
2022-09-28T17:37:04.826Z,7.87
2022-09-28T17:38:05.666Z,7.87
2022-09-28T17:39:07.065Z,7.9
2022-09-28T17:42:10.494Z,7.86
2022-09-28T17:43:11.210Z,7.87
2022-09-28T17:44:11.361Z,7.9
2022-09-28T17:45:11.832Z,7.9
2022-09-28T17:47:14.185Z,7.91
2022-09-28T17:48:16.258Z,7.91
2022-09-28T17:49:15.143Z,7.92
2022-09-28T17:50:23.140Z,7.89
2022-09-28T17:51:15.869Z,7.9
2022-09-28T17:52:16.305Z,7.92
2022-09-28T17:53:16.427Z,7.91
2022-09-28T17:54:27.156Z,7.92
2022-09-28T17:55:24.700Z,7.89
2022-09-28T17:56:22.719Z,7.88
2022-09-28T17:57:22.877Z,7.88
2022-09-28T17:58:23.410Z,7.87
2022-09-28T17:59:23.457Z,7.88
2022-09-28T18:00:24.945Z,7.84
2022-09-28T18:01:24.519Z,7.8
2022-09-28T18:02:24.711Z,7.67
2022-09-28T18:03:25.477Z,7.49
2022-09-28T18:04:50.245Z,7.41
2022-09-28T18:05:28.053Z,7.36
2022-09-28T18:06:28.912Z,7.41
2022-09-28T18:07:28.898Z,7.39
2022-09-28T18:08:29.199Z,7.32
2022-09-28T18:09:29.410Z,7.24
2022-09-28T18:10:30.534Z,7.14
2022-09-28T18:11:31.797Z,7.1
2022-09-28T18:12:30.654Z,7.05
2022-09-28T18:13:31.392Z,6.97
2022-09-28T18:14:31.508Z,6.96
2022-09-28T18:15:31.984Z,6.99
2022-09-28T18:16:32.541Z,6.98
2022-09-28T18:17:32.741Z,6.98
2022-09-28T18:18:33.567Z,7
2022-09-28T18:19:33.700Z,6.96
2022-09-28T18:20:35.534Z,6.93
2022-09-28T18:21:34.459Z,6.94
2022-09-28T18:22:35.144Z,6.88
2022-09-28T18:23:39.328Z,6.82
2022-09-28T18:24:36.976Z,6.85
2022-09-28T18:26:40.589Z,6.88
2022-09-28T18:27:40.992Z,6.8
2022-09-28T18:28:42.320Z,6.75
2022-09-28T18:29:42.134Z,6.73
2022-09-28T18:30:45.103Z,6.77
2022-09-28T18:31:42.661Z,6.74
2022-09-28T18:32:43.275Z,6.74
2022-09-28T18:33:43.590Z,6.75
2022-09-28T18:34:43.914Z,6.77
2022-09-28T18:36:49.173Z,6.7
2022-09-28T18:37:49.258Z,6.72
2022-09-28T18:38:49.792Z,6.7
2022-09-28T18:39:50.426Z,6.72
2022-09-28T18:40:51.049Z,6.72
2022-09-28T18:41:51.341Z,6.73
2022-09-28T18:42:51.434Z,6.67
2022-09-28T18:43:51.974Z,6.68
2022-09-28T18:44:51.956Z,6.64
2022-09-28T18:45:52.947Z,6.65
2022-09-28T18:46:53.097Z,6.65
2022-09-28T18:47:53.279Z,6.64
2022-09-28T18:48:54.576Z,6.62
2022-09-28T18:49:54.209Z,6.61
2022-09-28T18:50:54.683Z,6.57
2022-09-28T18:51:54.977Z,6.58
2022-09-28T18:52:55.287Z,6.57
2022-09-28T18:53:56.011Z,6.59
2022-09-28T18:54:56.118Z,6.59
2022-09-28T18:55:56.431Z,6.58
2022-09-28T18:56:56.843Z,6.55
2022-09-28T18:57:57.363Z,6.55
2022-09-28T18:58:58.020Z,6.59
2022-09-28T18:59:58.063Z,6.64
2022-09-28T19:01:13.731Z,6.67
2022-09-28T19:02:01.007Z,6.64
2022-09-28T19:03:01.300Z,6.62
2022-09-28T19:04:03.446Z,6.62
2022-09-28T19:05:02.023Z,6.6
2022-09-28T19:06:02.461Z,6.6
2022-09-28T19:07:02.554Z,6.56
2022-09-28T19:08:03.072Z,6.59
2022-09-28T19:09:03.772Z,6.6
2022-09-28T19:10:04.919Z,6.56
2022-09-28T19:12:08.265Z,6.57
2022-09-28T19:13:08.951Z,6.55
2022-09-28T19:14:10.069Z,6.56
2022-09-28T19:15:10.076Z,6.55
2022-09-28T19:16:12.477Z,6.56
2022-09-28T19:17:10.401Z,6.54
2022-09-28T19:18:11.014Z,6.57
2022-09-28T19:19:18.206Z,6.57
2022-09-28T19:20:16.149Z,6.54
2022-09-28T19:21:16.873Z,6.53
2022-09-28T19:22:16.372Z,6.54
2022-09-28T19:23:16.990Z,6.51
2022-09-28T19:24:19.049Z,6.52
2022-09-28T19:25:17.821Z,6.54
2022-09-28T19:26:26.529Z,6.52
2022-09-28T19:27:19.163Z,6.52
2022-09-28T19:28:19.382Z,6.48
2022-09-28T19:29:20.480Z,6.47
2022-09-28T19:30:20.219Z,6.5